Time;durP1;ratioP1;P1;durP2;ratioP2;P2;SDS_P1;SDS_P2;PMS_P1;PMS_P2;Temp;Humidity;BMP_temperature;BMP_pressure;BME280_temperature;BME280_humidity;BME280_pressure;Samples;Min_cycle;Max_cycle;Signal;HPM_P1;HPM_P2
2022/04/07 00:02:16;;;;;;;19.35;12.02;;;;;;;16.86;42.46;91970.84;5029244;28;20037;-86
2022/04/07 00:04:42;;;;;;;21.05;11.45;;;;;;;16.85;42.62;91965.91;5030574;28;20498;-88
2022/04/07 00:07:07;;;;;;;20.38;12.15;;;;;;;16.85;42.79;91963.91;5029712;28;20511;-88
2022/04/07 00:09:33;;;;;;;17.75;11.30;;;;;;;16.84;42.77;91970.66;5030049;28;20049;-88
2022/04/07 00:11:58;;;;;;;18.77;11.73;;;;;;;16.84;42.57;91964.47;5030031;28;20068;-84
2022/04/07 00:14:23;;;;;;;19.33;11.68;;;;;;;16.87;42.34;91957.94;5046121;28;20040;-88
2022/04/07 00:16:49;;;;;;;18.95;11.40;;;;;;;16.85;42.52;91946.81;5034167;28;20046;-88
2022/04/07 00:19:15;;;;;;;19.17;11.07;;;;;;;16.84;42.58;91953.53;5008833;28;20057;-88
2022/04/07 00:21:46;;;;;;;16.98;10.80;;;;;;;16.84;42.57;91945.34;4994207;28;20057;-85
2022/04/07 00:24:12;;;;;;;17.80;11.38;;;;;;;16.81;42.59;91944.41;4994503;28;20167;-85
2022/04/07 00:26:37;;;;;;;20.55;12.18;;;;;;;16.81;42.64;91941.69;5010014;28;20037;-85
2022/04/07 00:29:03;;;;;;;16.98;10.18;;;;;;;16.83;42.55;91947.34;5009794;28;20053;-84
2022/04/07 00:31:31;;;;;;;17.70;10.70;;;;;;;16.84;42.89;91931.69;5009585;28;20438;-85
2022/04/07 00:33:56;;;;;;;19.13;11.45;;;;;;;16.82;42.46;91937.69;5010176;28;20492;-88
2022/04/07 00:36:21;;;;;;;18.35;11.40;;;;;;;16.84;42.85;91921.53;5009292;28;20053;-86
2022/04/07 00:38:47;;;;;;;18.92;11.48;;;;;;;16.84;42.95;91926.97;5010170;28;20106;-86
2022/04/07 00:41:12;;;;;;;17.85;10.32;;;;;;;16.85;42.76;91925.72;5029057;28;20045;-89
2022/04/07 00:46:59;;;;;;;19.35;11.38;;;;;;;16.84;42.55;91918.06;5047044;28;20157;-88
2022/04/07 00:49:25;;;;;;;19.17;10.73;;;;;;;16.84;43.02;91926.25;5013445;28;20045;-87
2022/04/07 00:51:50;;;;;;;17.90;11.27;;;;;;;16.81;42.47;91919.13;5025885;28;20029;-88
2022/04/07 00:54:16;;;;;;;21.27;11.27;;;;;;;16.85;42.38;91922.25;5024901;28;20037;-87
2022/04/07 00:56:42;;;;;;;17.90;10.15;;;;;;;16.82;42.40;91926.06;5042834;28;20476;-87
2022/04/07 00:59:07;;;;;;;20.33;10.93;;;;;;;16.81;42.45;91919.84;5025453;28;20048;-87
2022/04/07 01:01:33;;;;;;;16.77;9.73;;;;;;;16.82;42.67;91906.94;5026214;28;20033;-87
2022/04/07 01:03:58;;;;;;;17.02;9.95;;;;;;;16.79;42.13;91906.75;5009447;28;20083;-85
2022/04/07 01:06:23;;;;;;;19.08;11.13;;;;;;;16.79;42.59;91917.66;5008857;28;20045;-86
2022/04/07 01:08:49;;;;;;;19.58;10.57;;;;;;;16.79;42.51;91914.94;5029293;28;20511;-87
2022/04/07 01:11:14;;;;;;;17.75;10.48;;;;;;;16.81;42.86;91914.41;5028695;28;20072;-87
2022/04/07 01:13:46;;;;;;;17.20;10.15;;;;;;;16.79;42.80;91923.13;5029126;28;20048;-86
2022/04/07 01:16:12;;;;;;;18.73;11.10;;;;;;;16.81;42.66;91911.69;5042860;28;20495;-85
2022/04/07 01:18:38;;;;;;;16.15;9.68;;;;;;;16.81;42.87;91917.13;5009385;28;20413;-89
2022/04/07 01:21:04;;;;;;;15.40;9.68;;;;;;;16.81;42.61;91908.94;5019333;28;20102;-86
2022/04/07 01:23:31;;;;;;;18.70;10.95;;;;;;;16.78;42.82;91904.56;5045220;28;20052;-86
2022/04/07 01:25:56;;;;;;;15.27;9.38;;;;;;;16.75;42.79;91909.09;5045056;28;20064;-88
2022/04/07 01:28:21;;;;;;;18.90;10.55;;;;;;;16.78;42.40;91910.75;5028339;28;20040;-86
2022/04/07 01:30:47;;;;;;;19.42;10.88;;;;;;;16.79;42.50;91897.84;5030477;28;20062;-86
2022/04/07 01:33:12;;;;;;;19.48;10.93;;;;;;;16.80;42.86;91902.03;5035061;28;20316;-89
2022/04/07 01:35:38;;;;;;;16.67;10.57;;;;;;;16.79;42.66;91906.03;5052300;28;20049;-87
2022/04/07 01:38:03;;;;;;;17.52;10.48;;;;;;;16.79;42.97;91911.47;5023546;28;20115;-89
2022/04/07 01:40:31;;;;;;;17.25;11.05;;;;;;;16.77;42.59;91898.38;5015713;28;20041;-85
2022/04/07 01:42:57;;;;;;;15.30;10.15;;;;;;;16.79;42.95;91911.47;5032288;28;20037;-87
2022/04/07 01:45:22;;;;;;;15.40;10.27;;;;;;;16.81;42.85;91903.47;5017767;28;20090;-88
2022/04/07 01:47:47;;;;;;;20.42;11.05;;;;;;;16.82;42.75;91912.41;5051931;28;20425;-87
2022/04/07 01:50:13;;;;;;;17.48;10.30;;;;;;;16.82;42.93;91912.41;5034946;28;20044;-87
2022/04/07 01:52:39;;;;;;;16.42;10.20;;;;;;;16.82;42.96;91896.03;5032307;28;20040;-88
2022/04/07 01:55:05;;;;;;;18.50;10.55;;;;;;;16.78;42.65;91897.09;5015058;28;20032;-87
2022/04/07 01:57:31;;;;;;;21.15;10.90;;;;;;;16.82;42.80;91901.50;5015056;28;20033;-87
2022/04/07 01:59:56;;;;;;;14.52;9.32;;;;;;;16.75;42.62;91906.34;5015601;28;20048;-87
2022/04/07 02:02:22;;;;;;;14.40;8.25;;;;;;;16.76;42.81;91904.34;5047807;28;20086;-87
2022/04/07 02:04:55;;;;;;;15.70;9.98;;;;;;;16.79;42.85;91906.75;4993857;28;20179;-86
2022/04/07 02:07:20;;;;;;;12.75;8.60;;;;;;;16.75;42.74;91900.91;4979480;28;20296;-87
2022/04/07 02:09:45;;;;;;;15.45;9.88;;;;;;;16.79;42.48;91904.03;4996951;28;20049;-88
2022/04/07 02:12:11;;;;;;;16.75;9.60;;;;;;;16.80;42.72;91902.03;4996644;28;20041;-85
2022/04/07 02:14:36;;;;;;;14.05;8.73;;;;;;;16.77;42.92;91901.09;4997184;28;20124;-87
2022/04/07 02:17:02;;;;;;;17.63;10.40;;;;;;;16.78;42.48;91904.56;5013330;28;20037;-87
2022/04/07 02:19:27;;;;;;;18.60;10.23;;;;;;;16.78;42.82;91907.28;4994907;28;20041;-87
2022/04/07 02:21:53;;;;;;;16.08;9.45;;;;;;;16.76;42.79;91901.63;4977889;28;20072;-86
2022/04/07 02:24:18;;;;;;;17.25;9.93;;;;;;;16.76;42.68;91896.16;4961216;28;20041;-85
2022/04/07 02:26:44;;;;;;;17.80;10.15;;;;;;;16.76;42.62;91896.16;5011521;28;20057;-87
2022/04/07 02:29:09;;;;;;;18.27;10.15;;;;;;;16.79;42.52;91892.38;4997065;28;20149;-88
2022/04/07 02:31:34;;;;;;;17.38;9.48;;;;;;;16.75;42.54;91889.97;4997325;28;20053;-88
2022/04/07 02:34:00;;;;;;;19.35;10.10;;;;;;;16.75;42.70;91887.25;5030416;28;20049;-86
2022/04/07 02:36:25;;;;;;;14.93;8.88;;;;;;;16.75;42.54;91883.78;5012605;28;20595;-86
2022/04/07 02:38:51;;;;;;;16.33;9.45;;;;;;;16.77;42.82;91878.53;5010063;28;20041;-88
2022/04/07 02:41:16;;;;;;;16.33;8.70;;;;;;;16.75;42.83;91879.06;4979024;28;20053;-86
2022/04/07 02:43:41;;;;;;;18.90;9.35;;;;;;;16.75;42.37;91881.06;5011199;28;20076;-88
2022/04/07 02:46:07;;;;;;;19.02;10.00;;;;;;;16.77;42.81;91878.53;5003890;28;20037;-88
2022/04/07 02:48:32;;;;;;;16.83;9.55;;;;;;;16.76;42.66;91880.53;5015528;28;20044;-86
2022/04/07 02:50:58;;;;;;;16.25;9.82;;;;;;;16.74;42.77;91877.59;5031534;28;20543;-87
2022/04/07 02:53:24;;;;;;;15.68;9.48;;;;;;;16.78;42.81;91877.25;5014916;28;20033;-87
2022/04/07 02:55:50;;;;;;;16.17;9.30;;;;;;;16.76;42.40;91871.63;5013843;28;20120;-87
2022/04/07 02:58:16;;;;;;;20.45;9.73;;;;;;;16.74;42.68;91880.34;5030815;28;20527;-88
2022/04/07 03:00:41;;;;;;;15.70;9.02;;;;;;;16.77;42.53;91875.81;5031337;28;20053;-88
2022/04/07 03:03:07;;;;;;;17.83;9.63;;;;;;;16.76;42.52;91877.06;5047710;28;20033;-87
2022/04/07 03:05:32;;;;;;;16.75;9.13;;;;;;;16.74;42.57;91876.88;5047793;28;20037;-87
2022/04/07 03:07:58;;;;;;;17.00;9.00;;;;;;;16.77;42.65;91879.25;5040866;28;20029;-87
2022/04/07 03:10:23;;;;;;;19.45;10.45;;;;;;;16.76;42.53;91883.25;5046956;28;20489;-87
2022/04/07 03:12:48;;;;;;;15.32;9.00;;;;;;;16.74;42.60;91882.34;5014697;28;20044;-88
2022/04/07 03:15:14;;;;;;;16.25;8.88;;;;;;;16.77;42.47;91879.25;5047437;28;20072;-87
2022/04/07 03:17:39;;;;;;;16.55;9.90;;;;;;;16.73;42.50;91872.69;5014219;28;20037;-88
2022/04/07 03:20:05;;;;;;;15.23;9.18;;;;;;;16.74;42.49;91874.88;5046905;28;20037;-88
2022/04/07 03:22:31;;;;;;;14.90;8.95;;;;;;;16.76;42.58;91875.06;5030947;28;20083;-86
2022/04/07 03:24:56;;;;;;;18.52;9.10;;;;;;;16.75;42.74;91865.44;5047427;28;20033;-88
2022/04/07 03:27:21;;;;;;;16.15;9.85;;;;;;;16.76;42.81;91864.16;5046771;28;20045;-86
2022/04/07 03:29:47;;;;;;;17.63;9.65;;;;;;;16.76;42.66;91866.88;5027159;28;20040;-85
2022/04/07 03:32:12;;;;;;;21.92;9.18;;;;;;;16.74;42.57;91869.41;5010611;28;20096;-87
2022/04/07 03:34:38;;;;;;;16.90;9.10;;;;;;;16.76;42.61;91868.88;5027616;28;20041;-87
2022/04/07 03:37:04;;;;;;;19.30;8.93;;;;;;;16.76;42.21;91866.88;5012458;28;20049;-88
2022/04/07 03:39:30;;;;;;;16.73;8.50;;;;;;;16.76;42.65;91869.63;5047529;28;20033;-87
2022/04/07 03:41:55;;;;;;;13.07;8.60;;;;;;;16.76;42.32;91872.34;5046910;28;20120;-87
2022/04/07 03:44:21;;;;;;;15.68;8.43;;;;;;;16.75;42.37;91872.88;5046525;28;20033;-87
2022/04/07 03:46:46;;;;;;;14.32;8.93;;;;;;;16.75;42.30;91865.44;5046924;28;20041;-88
2022/04/07 03:49:12;;;;;;;15.93;8.93;;;;;;;16.75;43.12;91865.44;5046401;28;20470;-87
2022/04/07 03:51:37;;;;;;;17.00;8.95;;;;;;;16.76;42.52;91858.69;5047470;28;20055;-87
2022/04/07 03:54:02;;;;;;;13.52;8.80;;;;;;;16.75;42.57;91864.69;5013044;28;20044;-85
2022/04/07 03:56:28;;;;;;;17.08;9.20;;;;;;;16.74;42.73;91855.03;5030218;28;20041;-86
2022/04/07 03:58:53;;;;;;;17.10;9.15;;;;;;;16.76;42.48;91853.25;5014380;28;20064;-87
2022/04/07 04:01:19;;;;;;;14.88;8.02;;;;;;;16.71;42.73;91848.66;5040761;28;20033;-87
2022/04/07 04:03:44;;;;;;;16.65;9.00;;;;;;;16.76;43.12;91855.25;5027032;28;20037;-87
2022/04/07 04:06:10;;;;;;;19.55;8.60;;;;;;;16.75;42.83;91851.03;5009627;28;20041;-87
2022/04/07 04:08:35;;;;;;;17.52;9.23;;;;;;;16.73;42.49;91848.84;5055455;28;20407;-87
2022/04/07 04:11:00;;;;;;;15.77;9.00;;;;;;;16.76;42.84;91855.25;5046668;28;20056;-86
2022/04/07 04:13:28;;;;;;;18.15;9.70;;;;;;;16.75;42.60;91857.25;5029844;28;20487;-86
2022/04/07 04:15:54;;;;;;;17.75;9.40;;;;;;;16.76;42.47;91855.25;5046890;28;20037;-87
2022/04/07 04:18:19;;;;;;;15.63;8.55;;;;;;;16.74;42.36;91857.78;5045594;28;20040;-86
2022/04/07 04:20:44;;;;;;;18.90;9.70;;;;;;;16.74;42.48;91852.31;5029609;28;20036;-86
2022/04/07 04:23:10;;;;;;;21.52;9.13;;;;;;;16.75;42.53;91849.06;5046204;28;20037;-86
2022/04/07 04:25:35;;;;;;;18.95;8.85;;;;;;;16.73;43.05;91848.13;5029557;28;20037;-86
2022/04/07 04:28:00;;;;;;;20.33;8.95;;;;;;;16.75;42.49;91840.13;5029788;28;20037;-86
2022/04/07 04:30:26;;;;;;;22.20;10.98;;;;;;;16.79;42.86;91848.72;5045848;28;20412;-86
2022/04/07 04:32:52;;;;;;;30.10;14.18;;;;;;;16.78;43.04;91845.25;5044167;28;20033;-86
2022/04/07 04:35:17;;;;;;;52.78;22.52;;;;;;;16.81;43.53;91851.63;5018217;28;20041;-86
2022/04/07 04:37:43;;;;;;;45.83;26.52;;;;;;;16.83;43.42;91843.66;5038870;28;20119;-90
2022/04/07 04:40:09;;;;;;;48.17;28.10;;;;;;;16.92;43.25;91840.41;5014600;28;20640;-87
2022/04/07 04:42:34;;;;;;;54.28;26.23;;;;;;;16.90;42.60;91847.66;5043933;28;20064;-85
2022/04/07 04:44:59;;;;;;;48.63;27.20;;;;;;;16.91;42.80;91844.41;5018511;28;20756;-87
2022/04/07 04:47:25;;;;;;;49.75;24.73;;;;;;;16.98;42.87;91840.25;5030379;28;20123;-87
2022/04/07 04:49:51;;;;;;;49.72;25.17;;;;;;;16.98;42.44;91840.97;5032794;28;20079;-86
2022/04/07 04:52:16;;;;;;;59.60;27.73;;;;;;;16.92;42.44;91843.13;5050347;28;20541;-87
2022/04/07 04:54:41;;;;;;;50.28;23.35;;;;;;;16.93;43.12;91839.13;5019600;28;20047;-85
2022/04/07 04:57:07;;;;;;;56.67;26.55;;;;;;;16.93;42.87;91847.31;5066226;28;20043;-87
2022/04/07 04:59:33;;;;;;;93.80;30.05;;;;;;;16.87;43.34;91846.75;5013328;28;20048;-88
2022/04/07 05:01:58;;;;;;;80.57;28.35;;;;;;;16.86;42.97;91844.56;5016640;28;20066;-86
2022/04/07 05:04:23;;;;;;;120.43;31.15;;;;;;;16.86;43.17;91841.84;5029385;28;20044;-86
2022/04/07 05:06:49;;;;;;;54.85;20.58;;;;;;;16.85;43.49;91848.56;5005145;28;20439;-86
2022/04/07 05:09:14;;;;;;;138.00;29.05;;;;;;;16.79;43.79;91854.16;5012341;28;20111;-87
2022/04/07 05:11:40;;;;;;;60.50;17.08;;;;;;;16.66;44.67;91855.03;5030382;28;20044;-85
2022/04/07 05:14:05;;;;;;;80.10;18.70;;;;;;;16.67;44.58;91861.22;5032471;28;20037;-85
2022/04/07 05:16:31;;;;;;;60.67;18.25;;;;;;;16.65;44.52;91859.00;5046952;28;20036;-87
2022/04/07 05:18:56;;;;;;;50.95;16.05;;;;;;;16.62;44.60;91860.06;5023608;28;20037;-85
2022/04/07 05:21:22;;;;;;;43.45;15.75;;;;;;;16.66;44.74;91860.47;5026901;28;20499;-88
2022/04/07 05:23:47;;;;;;;49.50;17.83;;;;;;;16.69;44.46;91853.19;5017385;28;20047;-87
2022/04/07 05:26:13;;;;;;;46.60;17.73;;;;;;;16.72;44.78;91850.13;5045620;28;20041;-88
2022/04/07 05:28:39;;;;;;;133.98;44.22;;;;;;;16.75;43.94;91859.25;5025584;28;20041;-86
2022/04/07 05:31:05;;;;;;;105.05;35.72;;;;;;;16.77;43.85;91851.25;5031857;28;20106;-90
2022/04/07 05:33:30;;;;;;;122.15;47.67;;;;;;;16.73;43.86;91859.78;5022811;28;20044;-87
2022/04/07 05:35:56;;;;;;;129.82;45.13;;;;;;;16.74;43.57;91863.97;5040303;28;20059;-85
2022/04/07 05:38:21;;;;;;;117.15;36.03;;;;;;;16.73;43.92;91861.78;5034710;28;20048;-89
2022/04/07 05:40:47;;;;;;;58.28;27.40;;;;;;;16.75;43.87;91861.97;5034962;28;20037;-87
2022/04/07 05:43:12;;;;;;;71.18;25.70;;;;;;;16.74;44.04;91857.78;5024273;28;20427;-87
2022/04/07 05:45:39;;;;;;;55.25;23.23;;;;;;;16.74;43.62;91861.22;5015066;28;20047;-89
2022/04/07 05:48:05;;;;;;;75.00;25.90;;;;;;;16.77;43.85;91854.72;5013646;28;20067;-90
2022/04/07 05:50:31;;;;;;;81.30;27.77;;;;;;;16.76;44.13;91861.44;5027172;28;20041;-87
2022/04/07 05:52:56;;;;;;;82.20;26.45;;;;;;;16.71;44.28;91854.13;5012173;28;20029;-93
2022/04/07 05:55:22;;;;;;;72.53;30.48;;;;;;;16.75;43.87;91856.50;5031393;28;20068;-87
2022/04/07 05:57:48;;;;;;;85.07;32.33;;;;;;;16.74;44.09;91853.03;5050568;28;20599;-89
2022/04/07 06:00:16;;;;;;;79.40;28.05;;;;;;;16.75;44.00;91857.25;5043057;28;20034;-86
2022/04/07 06:02:42;;;;;;;78.32;29.52;;;;;;;16.79;44.07;91863.09;5039142;28;20620;-87
2022/04/07 06:05:08;;;;;;;68.43;26.83;;;;;;;16.81;43.91;91853.63;5027701;28;20049;-84
2022/04/07 06:07:34;;;;;;;75.07;25.15;;;;;;;16.84;44.16;91852.56;5009795;28;20522;-89
2022/04/07 06:09:59;;;;;;;71.03;25.80;;;;;;;16.90;44.38;91866.75;5022230;28;20048;-86
2022/04/07 06:12:25;;;;;;;79.15;27.48;;;;;;;16.94;44.31;91870.63;5012141;28;20419;-88
2022/04/07 06:14:51;;;;;;;63.22;25.02;;;;;;;16.98;44.31;91873.00;5008241;28;20652;-90
2022/04/07 06:17:17;;;;;;;58.35;23.58;;;;;;;17.03;44.23;91872.84;5030628;28;20044;-88
2022/04/07 06:19:42;;;;;;;61.92;25.55;;;;;;;17.06;43.38;91858.13;5020561;28;20041;-90
2022/04/07 06:22:07;;;;;;;55.60;23.10;;;;;;;17.05;44.44;91864.88;5024568;28;20037;-86
2022/04/07 06:24:34;;;;;;;50.53;21.00;;;;;;;17.02;44.01;91865.19;5017481;28;20408;-91
2022/04/07 06:27:00;;;;;;;59.63;22.55;;;;;;;17.05;43.74;91855.94;5015739;28;20045;-91
2022/04/07 06:29:26;;;;;;;65.10;23.80;;;;;;;16.97;43.72;91850.44;4996934;28;20083;-93
2022/04/07 06:31:52;;;;;;;64.90;23.40;;;;;;;16.96;43.96;91854.44;5014867;28;20044;-90
2022/04/07 06:34:18;;;;;;;76.30;24.85;;;;;;;16.97;43.56;91857.91;5018081;28;20171;-89
2022/04/07 06:36:43;;;;;;;68.03;25.40;;;;;;;16.96;43.85;91842.78;5047496;28;20045;-90
2022/04/07 06:39:09;;;;;;;87.32;30.80;;;;;;;16.96;43.37;91859.91;5017837;28;20037;-86
2022/04/07 06:41:34;;;;;;;85.68;32.22;;;;;;;16.99;43.74;91858.09;5031975;28;20067;-92
2022/04/07 06:43:59;;;;;;;84.40;26.88;;;;;;;16.97;43.74;91844.25;5044521;28;20627;-92
2022/04/07 06:46:26;;;;;;;95.88;33.28;;;;;;;16.96;43.55;91851.69;5032488;28;20061;-87
2022/04/07 06:48:51;;;;;;;81.93;32.03;;;;;;;16.97;43.65;91852.44;5017025;28;20060;-92
2022/04/07 06:51:17;;;;;;;85.38;31.90;;;;;;;16.94;43.60;91854.25;5051506;28;20411;-91
2022/04/07 06:53:43;;;;;;;71.32;32.80;;;;;;;16.97;43.76;91847.72;5028593;28;20860;-89
2022/04/07 06:56:10;;;;;;;113.40;49.10;;;;;;;16.95;44.21;91852.25;5018473;28;20418;-88
2022/04/07 06:58:35;;;;;;;77.72;36.67;;;;;;;17.02;43.84;91844.09;5035985;28;20037;-90
2022/04/07 07:01:00;;;;;;;118.80;54.80;;;;;;;16.99;43.51;91847.91;5033915;28;20072;-89
2022/04/07 07:03:28;;;;;;;158.35;81.68;;;;;;;16.95;44.39;91844.78;5042416;28;20037;-92
2022/04/07 07:06:00;;;;;;;186.25;83.10;;;;;;;16.96;44.03;91827.13;5039391;28;20052;-90
2022/04/07 07:08:27;;;;;;;250.40;112.47;;;;;;;16.94;42.83;91843.31;5040614;28;20033;-90
2022/04/07 07:10:53;;;;;;;208.18;93.20;;;;;;;16.95;43.71;91844.06;5036604;28;20045;-90
2022/04/07 07:13:20;;;;;;;177.00;73.30;;;;;;;16.94;44.32;91837.84;5049061;28;20296;-89
2022/04/07 07:15:46;;;;;;;169.35;75.68;;;;;;;16.97;43.57;91838.78;5010147;28;20135;-91
2022/04/07 07:18:11;;;;;;;207.32;82.75;;;;;;;16.94;44.45;91835.13;5000834;28;20042;-93
2022/04/07 07:20:36;;;;;;;227.07;96.97;;;;;;;16.97;43.72;91841.50;5013261;28;20033;-89
2022/04/07 07:23:03;;;;;;;199.63;79.43;;;;;;;16.96;44.35;91840.06;5047633;28;20037;-89
2022/04/07 07:25:31;;;;;;;178.60;73.53;;;;;;;16.93;44.62;91833.66;5030026;28;20048;-90
2022/04/07 07:27:56;;;;;;;267.45;115.47;;;;;;;16.96;43.71;91832.59;5034913;28;20041;-90
2022/04/07 07:30:22;;;;;;;261.38;110.70;;;;;;;16.96;43.69;91834.59;5015459;28;20550;-89
2022/04/07 07:32:48;;;;;;;271.48;110.85;;;;;;;16.93;43.47;91836.41;5005611;28;20051;-91
2022/04/07 07:35:14;;;;;;;237.70;91.15;;;;;;;16.93;44.00;91828.22;5020547;28;20067;-89
2022/04/07 07:38:01;;;;;;;213.85;83.03;;;;;;;16.94;43.40;91820.75;4987975;28;20042;-91
2022/04/07 07:40:28;;;;;;;205.48;81.53;;;;;;;16.92;43.21;91821.28;5024185;28;20125;-93
2022/04/07 07:42:56;;;;;;;234.20;93.93;;;;;;;16.92;43.67;91823.28;5030447;23;20041;-89
2022/04/07 07:45:22;;;;;;;247.10;104.45;;;;;;;16.97;42.78;91825.13;4997117;28;20034;-87
2022/04/07 07:47:48;;;;;;;245.32;108.30;;;;;;;16.95;43.03;91808.56;4999428;28;20040;-90
2022/04/07 07:50:13;;;;;;;245.60;99.07;;;;;;;16.94;43.20;91826.94;5001935;28;20042;-92
2022/04/07 07:52:39;;;;;;;250.25;105.65;;;;;;;16.95;43.02;91822.22;5039933;28;20044;-92
2022/04/07 07:55:07;;;;;;;225.50;91.57;;;;;;;16.99;43.20;91817.88;5012854;28;20041;-90
2022/04/07 07:57:33;;;;;;;292.92;102.20;;;;;;;16.98;43.56;91813.69;4997530;28;20041;-92
2022/04/07 07:59:59;;;;;;;252.20;113.75;;;;;;;16.98;43.38;91815.69;5014317;28;20601;-92
2022/04/07 08:02:25;;;;;;;319.20;162.82;;;;;;;16.97;43.64;91812.22;4993953;28;20045;-91
2022/04/07 08:04:50;;;;;;;287.55;143.13;;;;;;;17.03;43.40;91806.59;4998238;28;20049;-90
2022/04/07 08:07:17;;;;;;;316.23;143.30;;;;;;;17.02;43.46;91807.88;5010204;28;20066;-90
2022/04/07 08:09:43;;;;;;;305.92;148.38;;;;;;;17.04;43.52;91808.06;4993176;28;20080;-88
2022/04/07 08:12:09;;;;;;;266.25;135.77;;;;;;;17.02;44.60;91811.34;4997223;28;20033;-88
2022/04/07 08:14:34;;;;;;;277.65;135.60;;;;;;;17.02;43.53;91811.34;4991748;28;20057;-89
2022/04/07 08:17:00;;;;;;;260.60;135.02;;;;;;;17.01;43.41;91812.59;4994640;28;20041;-91
2022/04/07 08:19:26;;;;;;;243.55;128.15;;;;;;;17.03;43.31;91810.06;4982701;28;20315;-88
2022/04/07 08:21:51;;;;;;;227.90;120.43;;;;;;;17.04;43.43;91819.72;5009814;28;20069;-91
2022/04/07 08:24:19;;;;;;;210.82;115.85;;;;;;;17.02;43.21;91799.69;4978483;28;20034;-90
2022/04/07 08:26:44;;;;;;;199.32;100.53;;;;;;;17.04;44.43;91817.00;5012102;28;20045;-89
2022/04/07 08:29:10;;;;;;;210.88;109.97;;;;;;;17.06;43.60;91811.00;4994932;28;20092;-88
2022/04/07 08:31:35;;;;;;;213.00;114.03;;;;;;;17.06;43.50;91811.00;5007354;28;20041;-91
2022/04/07 08:34:01;;;;;;;224.65;118.10;;;;;;;17.06;43.55;91809.00;5012961;28;20053;-90
2022/04/07 08:36:26;;;;;;;216.65;104.63;;;;;;;17.03;44.34;91807.34;4996230;28;20029;-93
2022/04/07 08:38:51;;;;;;;200.18;103.32;;;;;;;17.06;43.60;91797.34;4995710;28;20038;-93
2022/04/07 08:41:17;;;;;;;208.85;103.57;;;;;;;17.04;44.26;91791.69;4993386;28;20297;-92
2022/04/07 08:43:42;;;;;;;261.95;130.25;;;;;;;17.07;43.50;91805.00;5003888;28;20068;-93
2022/04/07 08:46:09;;;;;;;264.73;137.18;;;;;;;17.06;43.48;91792.59;5020667;28;20052;-91
2022/04/07 08:48:40;;;;;;;258.63;131.40;;;;;;;17.05;44.32;91788.41;4997275;28;20041;-89
2022/04/07 08:51:06;;;;;;;280.92;142.48;;;;;;;17.09;43.45;91799.00;5020433;28;20037;-90
2022/04/07 08:53:32;;;;;;;251.00;139.73;;;;;;;17.06;43.66;91786.41;5032350;28;20076;-91
2022/04/07 08:55:59;;;;;;;254.50;141.68;;;;;;;17.07;43.44;91782.41;5003920;28;20137;-91
2022/04/07 08:58:25;;;;;;;237.35;136.82;;;;;;;17.07;43.19;91776.97;4998121;28;20093;-90
2022/04/07 09:00:51;;;;;;;264.27;134.35;;;;;;;17.06;43.65;91761.84;5022117;28;20040;-92
2022/04/07 09:03:16;;;;;;;654.20;478.75;;;;;;;17.10;43.75;91771.13;5017541;28;20076;-91
2022/04/07 09:05:56;;;;;;;296.10;140.48;;;;;;;17.12;43.52;91763.13;5038806;28;20675;-92
2022/04/07 09:08:33;;;;;;;274.50;141.23;;;;;;;17.12;43.47;91757.66;5007538;28;21104;-87
2022/04/07 09:11:00;;;;;;;254.85;138.60;;;;;;;17.14;43.22;91744.19;5009699;28;20275;-89
2022/04/07 09:13:39;;;;;;;236.25;129.18;;;;;;;17.10;43.15;91745.84;5009352;28;20034;-92
2022/04/07 09:16:07;;;;;;;232.85;131.48;;;;;;;17.15;43.41;91736.75;5004698;28;20052;-88
2022/04/07 09:18:34;;;;;;;233.88;123.13;;;;;;;17.12;43.34;91741.28;5027850;28;20102;-93
2022/04/07 09:21:00;;;;;;;214.23;115.78;;;;;;;17.16;43.55;91751.13;5011594;28;20033;-90
2022/04/07 09:23:25;;;;;;;211.35;114.80;;;;;;;17.12;43.29;91738.56;5010267;28;20191;-90
2022/04/07 09:25:51;;;;;;;173.35;90.45;;;;;;;17.16;43.40;91745.66;5006869;28;21378;-89
2022/04/07 09:28:34;;;;;;;202.68;104.65;;;;;;;17.15;43.71;91725.81;5001428;28;20037;-90
2022/04/07 09:31:00;;;;;;;179.30;101.28;;;;;;;17.17;43.38;91750.59;5027848;28;20045;-89
2022/04/07 09:33:27;;;;;;;154.38;89.78;;;;;;;17.17;43.87;91728.00;5010243;28;20030;-89
2022/04/07 09:36:10;;;;;;;152.73;89.80;;;;;;;17.18;43.73;91729.47;4990727;28;20045;-89
2022/04/07 09:38:36;;;;;;;154.98;92.97;;;;;;;17.19;43.26;91728.94;5011179;28;20045;-92
2022/04/07 09:41:10;;;;;;;189.52;99.18;;;;;;;17.21;43.47;91722.94;4993442;28;20041;-89
2022/04/07 09:44:01;;;;;;;155.13;85.78;;;;;;;17.20;43.78;91696.88;5015383;28;20136;-91
2022/04/07 09:46:34;;;;;;;155.73;88.07;;;;;;;17.21;43.39;91714.72;5049195;28;20041;-89
2022/04/07 09:49:04;;;;;;;144.65;84.45;;;;;;;17.21;44.14;91695.63;5032868;28;20422;-88
2022/04/07 09:51:36;;;;;;;182.68;90.15;;;;;;;17.25;43.50;91696.72;5006653;28;20029;-89
2022/04/07 09:54:01;;;;;;;177.20;100.60;;;;;;;17.30;43.32;91697.81;5007155;28;20347;-89
2022/04/07 09:56:28;;;;;;;173.65;94.88;;;;;;;17.32;43.09;91701.44;5023942;28;20041;-89
2022/04/07 09:58:54;;;;;;;156.15;90.30;;;;;;;17.27;43.53;91690.72;5018072;28;20144;-88
2022/04/07 10:01:20;;;;;;;199.02;106.30;;;;;;;17.23;43.47;91680.16;5016467;28;20045;-90
2022/04/07 10:03:47;;;;;;;176.80;99.07;;;;;;;17.25;43.07;91676.88;4999033;28;20052;-88
2022/04/07 10:06:14;;;;;;;185.20;104.13;;;;;;;17.28;43.46;91668.31;5015014;28;20037;-89
2022/04/07 10:08:40;;;;;;;201.00;107.68;;;;;;;17.25;43.28;91674.16;5031465;28;20496;-87
2022/04/07 10:11:06;;;;;;;203.38;104.72;;;;;;;17.26;43.26;91676.34;5033345;28;20064;-89
2022/04/07 10:13:31;;;;;;;191.25;109.25;;;;;;;17.28;43.74;91670.34;5001047;28;20036;-90
2022/04/07 10:15:57;;;;;;;180.40;106.55;;;;;;;17.26;43.51;91664.69;5033466;28;20041;-94
2022/04/07 10:18:30;;;;;;;160.00;92.35;;;;;;;17.25;43.86;91655.75;5016444;28;20029;-86
2022/04/07 10:20:57;;;;;;;166.75;94.25;;;;;;;17.26;43.12;91651.03;5017176;28;20041;-91
2022/04/07 10:23:33;;;;;;;199.07;105.38;;;;;;;17.25;43.60;91644.09;5016239;28;20377;-90
2022/04/07 10:25:59;;;;;;;150.77;82.20;;;;;;;17.26;43.74;91648.28;5061889;28;20060;-90
2022/04/07 10:28:25;;;;;;;157.13;97.15;;;;;;;17.26;43.05;91643.56;5030416;28;20123;-86
2022/04/07 10:30:52;;;;;;;128.63;76.65;;;;;;;17.25;43.62;91638.66;5016443;28;20140;-89
2022/04/07 10:33:39;;;;;;;133.40;80.95;;;;;;;17.26;43.70;91624.44;5034069;28;20034;-86
2022/04/07 10:36:15;;;;;;;157.25;91.18;;;;;;;17.27;42.91;91609.53;5039796;28;20044;-88
2022/04/07 10:38:42;;;;;;;135.35;85.07;;;;;;;17.26;43.33;91602.59;5016991;28;20042;-90
2022/04/07 10:41:07;;;;;;;144.95;88.00;;;;;;;17.29;43.00;91604.25;5030343;28;20141;-92
2022/04/07 10:43:38;;;;;;;153.05;89.63;;;;;;;17.31;43.00;91596.25;5017900;28;20041;-88
2022/04/07 10:46:06;;;;;;;145.05;87.57;;;;;;;17.28;43.37;91605.53;4998765;28;20037;-88
2022/04/07 10:48:34;;;;;;;140.75;86.53;;;;;;;17.31;43.22;91584.59;5026727;28;20076;-90
2022/04/07 10:51:09;;;;;;;128.02;75.10;;;;;;;17.30;43.34;91574.94;5019244;28;20029;-88
2022/04/07 10:53:36;;;;;;;137.55;78.15;;;;;;;17.31;43.21;91574.38;5006872;28;20543;-93
2022/04/07 10:56:11;;;;;;;130.80;76.13;;;;;;;17.31;43.08;91584.59;5007708;28;20060;-90
2022/04/07 10:58:49;;;;;;;122.10;73.00;;;;;;;17.30;43.18;91585.84;5023764;28;20037;-89
2022/04/07 11:01:29;;;;;;;322.05;89.72;;;;;;;17.32;42.97;91578.53;5018092;28;20060;-89
2022/04/07 11:04:22;;;;;;;265.85;85.75;;;;;;;17.32;42.93;91581.28;5038406;28;20029;-91
2022/04/07 11:07:15;;;;;;;188.02;79.30;;;;;;;17.30;43.12;91578.41;5055674;28;20044;-88
2022/04/07 11:09:57;;;;;;;152.88;76.40;;;;;;;17.31;42.96;91565.47;5053809;28;20033;-90
2022/04/07 11:12:28;;;;;;;142.05;79.85;;;;;;;17.31;42.99;91560.72;5048511;28;20057;-91
2022/04/07 11:15:03;;;;;;;147.30;81.32;;;;;;;17.35;43.00;91574.72;5036259;28;20041;-88
2022/04/07 11:17:42;;;;;;;155.15;83.70;;;;;;;17.32;42.56;91558.72;5037475;28;20051;-89